Time;durP1;ratioP1;P1;durP2;ratioP2;P2;SDS_P1;SDS_P2;PMS_P1;PMS_P2;Temp;Humidity;BMP_temperature;BMP_pressure;BME280_temperature;BME280_humidity;BME280_pressure;Samples;Min_cycle;Max_cycle;Signal;HPM_P1;HPM_P2
2023/06/24 00:01:44;;;;;;;8.50;6.78;;;;;;;20.27;100.00;102425.78;5109753;28;20024;-37
2023/06/24 00:04:09;;;;;;;7.25;6.60;;;;;;;20.17;100.00;102414.69;5109398;28;20019;-37
2023/06/24 00:06:39;;;;;;;7.07;6.43;;;;;;;20.09;100.00;102423.38;5109914;28;20038;-37
2023/06/24 00:09:04;;;;;;;7.97;6.75;;;;;;;19.88;100.00;102413.25;5108988;28;20023;-37
2023/06/24 00:11:30;;;;;;;7.65;6.95;;;;;;;19.89;100.00;102425.88;5098987;28;20478;-37
2023/06/24 00:13:56;;;;;;;7.88;7.07;;;;;;;19.81;100.00;102429.88;5095391;28;20093;-37
2023/06/24 00:16:27;;;;;;;7.68;7.03;;;;;;;19.73;100.00;102428.44;5095578;28;20032;-37
2023/06/24 00:19:00;;;;;;;9.38;7.40;;;;;;;19.64;100.00;102429.13;5095532;28;20468;-37
2023/06/24 00:21:29;;;;;;;6.60;6.00;;;;;;;19.73;100.00;102433.91;5095215;28;20024;-37
2023/06/24 00:23:58;;;;;;;7.55;6.75;;;;;;;19.77;100.00;102429.59;5095374;28;20115;-37
2023/06/24 00:26:24;;;;;;;6.60;5.90;;;;;;;19.79;100.00;102427.41;5096051;28;20064;-37
2023/06/24 00:28:50;;;;;;;7.60;6.82;;;;;;;19.71;100.00;102424.25;5095419;28;20078;-37
2023/06/24 00:31:16;;;;;;;7.28;6.60;;;;;;;19.68;100.00;102422.88;5096163;28;20028;-37
2023/06/24 00:33:41;;;;;;;6.88;6.28;;;;;;;19.71;100.00;102436.06;5095268;28;20036;-37
2023/06/24 00:36:11;;;;;;;6.25;5.65;;;;;;;19.63;100.00;102435.69;5095759;28;20428;-37
2023/06/24 00:38:36;;;;;;;5.93;5.43;;;;;;;19.66;100.00;102438.75;5095366;28;20083;-37
2023/06/24 00:41:02;;;;;;;6.22;5.63;;;;;;;19.57;100.00;102440.25;5095425;28;20064;-37
2023/06/24 00:43:29;;;;;;;5.68;5.00;;;;;;;19.64;99.52;102440.94;5095597;28;20499;-37
2023/06/24 00:45:55;;;;;;;4.72;4.30;;;;;;;19.44;97.45;102429.63;5095361;28;20032;-37
2023/06/24 00:48:21;;;;;;;4.40;4.00;;;;;;;19.52;94.87;102430.03;5094669;28;20031;-37
2023/06/24 00:50:49;;;;;;;5.22;4.65;;;;;;;19.43;95.19;102441.69;5094996;28;20149;-37
2023/06/24 00:53:15;;;;;;;4.50;4.00;;;;;;;19.38;97.72;102436.13;5094811;28;20028;-37
2023/06/24 00:55:41;;;;;;;5.28;4.13;;;;;;;19.34;97.28;102440.47;5095202;28;20028;-37
2023/06/24 00:58:06;;;;;;;4.40;3.97;;;;;;;19.17;98.91;102421.25;5094837;28;20427;-37
2023/06/24 01:00:34;;;;;;;4.65;4.03;;;;;;;19.08;96.80;102420.00;5095801;28;20082;-37
2023/06/24 01:02:59;;;;;;;4.53;4.13;;;;;;;19.13;96.05;102434.66;5094371;28;20032;-37
2023/06/24 01:05:26;;;;;;;5.13;3.80;;;;;;;19.05;94.95;102437.81;5095015;28;20379;-37
2023/06/24 01:07:55;;;;;;;4.13;3.72;;;;;;;18.97;93.64;102433.56;5094589;28;20559;-37
2023/06/24 01:10:22;;;;;;;3.67;3.35;;;;;;;18.82;94.27;102405.06;5094377;28;20042;-37
2023/06/24 01:12:48;;;;;;;3.45;3.15;;;;;;;18.91;96.22;102425.50;5094476;28;20471;-37
2023/06/24 01:15:13;;;;;;;3.58;3.28;;;;;;;18.87;100.00;102427.06;5095315;28;20048;-37
2023/06/24 01:17:43;;;;;;;3.15;2.83;;;;;;;18.89;100.00;102423.03;5094795;28;20043;-37
2023/06/24 01:20:11;;;;;;;3.65;3.20;;;;;;;18.76;98.47;102423.34;5094301;28;20085;-37
2023/06/24 01:23:11;;;;;;;3.50;3.20;;;;;;;18.75;97.66;102411.56;5093819;28;20035;-37
2023/06/24 01:25:53;;;;;;;5.18;3.60;;;;;;;18.67;97.50;102414.66;5094794;28;20047;-37
2023/06/24 01:28:43;;;;;;;3.58;3.13;;;;;;;18.63;96.90;102418.13;5094529;28;20024;-37
2023/06/24 01:31:14;;;;;;;3.90;3.42;;;;;;;18.56;100.00;102417.47;5094709;28;20081;-37
2023/06/24 01:33:50;;;;;;;3.47;3.08;;;;;;;18.48;99.34;102411.31;5094459;28;20111;-37
2023/06/24 01:36:17;;;;;;;3.50;3.17;;;;;;;18.41;99.12;102410.63;5094463;28;20111;-37
2023/06/24 01:38:50;;;;;;;3.53;3.08;;;;;;;18.47;100.00;102411.56;5093672;28;20028;-37
2023/06/24 01:41:20;;;;;;;4.03;3.22;;;;;;;18.45;100.00;102410.97;5094490;28;20034;-37
2023/06/24 01:43:47;;;;;;;5.07;3.50;;;;;;;18.37;100.00;102414.09;5094203;28;20098;-37
2023/06/24 01:46:16;;;;;;;3.47;3.03;;;;;;;18.33;98.60;102410.19;5093937;28;20472;-37
2023/06/24 01:48:44;;;;;;;4.75;3.10;;;;;;;18.25;100.00;102404.03;5093536;28;20122;-37
2023/06/24 01:51:18;;;;;;;3.40;3.10;;;;;;;18.22;99.63;102396.31;5094280;28;20035;-37
2023/06/24 01:54:00;;;;;;;4.00;2.97;;;;;;;18.25;100.00;102405.94;5094310;28;20104;-37
2023/06/24 01:56:27;;;;;;;3.75;3.45;;;;;;;18.13;100.00;102407.91;5093650;28;20535;-37
2023/06/24 01:58:54;;;;;;;3.22;2.92;;;;;;;18.10;100.00;102411.94;5093919;28;20044;-37
2023/06/24 02:01:20;;;;;;;3.50;3.20;;;;;;;18.05;100.00;102395.41;5093883;28;20419;-37
2023/06/24 02:03:47;;;;;;;3.90;2.85;;;;;;;18.03;100.00;102405.78;5094278;28;20134;-37
2023/06/24 02:06:13;;;;;;;4.43;3.20;;;;;;;17.99;100.00;102404.59;5093596;28;20470;-37
2023/06/24 02:08:41;;;;;;;4.20;3.20;;;;;;;17.98;100.00;102405.69;5093462;28;20038;-37
2023/06/24 02:11:09;;;;;;;3.45;3.03;;;;;;;17.93;100.00;102398.19;5093823;28;20024;-37
2023/06/24 02:13:36;;;;;;;3.38;3.08;;;;;;;17.85;100.00;102395.00;5093415;28;20046;-37
2023/06/24 02:16:03;;;;;;;4.18;2.97;;;;;;;17.85;100.00;102405.94;5093429;28;20064;-37
2023/06/24 02:18:28;;;;;;;4.10;3.15;;;;;;;17.79;100.00;102390.50;5094266;28;20355;-37
2023/06/24 02:20:56;;;;;;;2.90;2.70;;;;;;;17.79;100.00;102395.97;5093061;28;20115;-37
2023/06/24 02:23:23;;;;;;;3.53;3.15;;;;;;;17.72;100.00;102402.38;5093455;28;20028;-37
2023/06/24 02:25:50;;;;;;;3.38;3.08;;;;;;;17.65;100.00;102392.63;5092964;28;20107;-37
2023/06/24 02:28:18;;;;;;;4.13;3.17;;;;;;;17.61;100.00;102399.66;5093152;28;20039;-37
2023/06/24 02:30:44;;;;;;;3.45;3.15;;;;;;;17.63;100.00;102405.75;5093661;28;20475;-37
2023/06/24 02:33:11;;;;;;;3.50;3.20;;;;;;;17.61;100.00;102402.41;5092593;28;20399;-37
2023/06/24 02:35:37;;;;;;;3.55;3.25;;;;;;;17.63;100.00;102398.34;5093124;28;20028;-37
2023/06/24 02:38:03;;;;;;;4.07;3.40;;;;;;;17.66;100.00;102391.56;5092732;28;20036;-37
2023/06/24 02:40:29;;;;;;;3.40;2.95;;;;;;;17.64;100.00;102399.19;5093362;28;20431;-37
2023/06/24 02:42:54;;;;;;;3.85;3.20;;;;;;;17.61;100.00;102408.69;5092941;28;20119;-37
2023/06/24 02:45:20;;;;;;;4.13;3.17;;;;;;;17.41;100.00;102389.94;5093434;28;20024;-37
2023/06/24 02:47:47;;;;;;;3.85;3.22;;;;;;;17.54;100.00;102404.44;5092858;28;20032;-37
2023/06/24 02:50:12;;;;;;;4.47;3.20;;;;;;;17.39;100.00;102375.69;5092940;28;20032;-37
2023/06/24 02:52:38;;;;;;;3.50;3.13;;;;;;;17.46;100.00;102397.41;5093077;28;20430;-37
2023/06/24 02:55:05;;;;;;;4.00;3.20;;;;;;;17.35;100.00;102395.53;5092797;28;20032;-37
2023/06/24 02:57:32;;;;;;;4.88;3.70;;;;;;;17.30;100.00;102400.88;5093539;28;20036;-37
2023/06/24 02:59:57;;;;;;;5.25;3.50;;;;;;;17.21;100.00;102392.19;5093000;28;20044;-37
2023/06/24 03:02:23;;;;;;;4.10;3.03;;;;;;;17.21;100.00;102387.56;5092724;28;20365;-37
2023/06/24 03:04:50;;;;;;;4.00;3.60;;;;;;;17.19;100.00;102405.28;5093136;28;20507;-37
2023/06/24 03:07:20;;;;;;;4.40;3.50;;;;;;;17.21;100.00;102409.44;5092986;28;20032;-37
2023/06/24 03:09:46;;;;;;;3.85;3.42;;;;;;;17.12;100.00;102399.91;5092655;28;20024;-37
2023/06/24 03:12:11;;;;;;;4.97;4.03;;;;;;;17.12;100.00;102412.75;5092510;28;20085;-37
2023/06/24 03:14:37;;;;;;;5.10;3.95;;;;;;;17.04;100.00;102400.28;5092625;28;20024;-37
2023/06/24 03:17:03;;;;;;;4.35;3.95;;;;;;;17.16;100.00;102419.41;5092935;28;20537;-37
2023/06/24 03:19:28;;;;;;;;;;;;;;;17.30;100.00;102415.38;5093005;28;20028;-37
2023/06/24 03:21:53;;;;;;;4.90;3.97;;;;;;;17.06;100.00;102422.75;5092832;28;19913;-37
2023/06/24 03:24:19;;;;;;;;;;;;;;;17.25;100.00;102415.28;5093359;28;20274;-37
2023/06/24 03:26:44;;;;;;;5.10;3.85;;;;;;;17.05;100.00;102412.06;5093291;28;19947;-37
2023/06/24 03:29:10;;;;;;;;;;;;;;;17.17;100.00;102396.47;5092611;28;20024;-37
2023/06/24 03:31:35;;;;;;;4.05;3.50;;;;;;;16.91;100.00;102400.50;5093519;28;20010;-36
2023/06/24 03:34:01;;;;;;;4.57;4.00;;;;;;;16.87;100.00;102408.34;5092199;28;20444;-37
2023/06/24 03:36:26;;;;;;;;;;;;;;;17.07;100.00;102409.91;5093319;28;20032;-37
2023/06/24 03:38:52;;;;;;;7.67;4.67;;;;;;;16.88;100.00;102403.69;5074240;28;20008;-37
2023/06/24 03:41:17;;;;;;;;;;;;;;;17.05;100.00;102415.63;5093033;28;20270;-37
2023/06/24 03:43:43;;;;;;;5.05;4.35;;;;;;;16.83;100.00;102409.88;5092060;28;19912;-37
2023/06/24 03:46:08;;;;;;;6.88;4.28;;;;;;;16.70;100.00;102402.69;5094595;28;20038;-37
2023/06/24 03:48:35;;;;;;;7.47;4.93;;;;;;;16.76;100.00;102411.06;5096115;28;20418;-37
2023/06/24 03:51:00;;;;;;;5.38;4.88;;;;;;;16.75;100.00;102410.22;5096261;28;20134;-37
2023/06/24 03:53:26;;;;;;;5.32;4.78;;;;;;;16.73;100.00;102401.41;5096058;28;20056;-37
2023/06/24 03:55:51;;;;;;;;;;;;;;;16.98;100.00;102417.59;5096764;28;20031;-37
2023/06/24 03:58:16;;;;;;;5.78;5.22;;;;;;;16.80;100.00;102420.44;5095849;28;19915;-37
2023/06/24 04:00:43;;;;;;;;;;;;;;;17.00;100.00;102423.69;5096597;28;20132;-37
2023/06/24 04:03:09;;;;;;;5.53;5.00;;;;;;;16.82;100.00;102421.88;5095637;28;19916;-37
2023/06/24 04:05:34;;;;;;;;;;;;;;;16.99;100.00;102422.88;5096616;28;20042;-37
2023/06/24 04:08:00;;;;;;;5.80;5.20;;;;;;;16.83;100.00;102425.44;5095598;28;19923;-37
2023/06/24 04:10:25;;;;;;;;;;;;;;;17.02;100.00;102428.91;5096943;28;20262;-37
2023/06/24 04:12:50;;;;;;;6.30;5.70;;;;;;;16.86;100.00;102425.81;5095626;28;19928;-37
2023/06/24 04:15:16;;;;;;;;;;;;;;;17.06;100.00;102424.66;5096139;28;20055;-37
2023/06/24 04:17:41;;;;;;;6.32;5.72;;;;;;;16.96;100.00;102425.22;5096288;28;19918;-37
2023/06/24 04:20:08;;;;;;;;;;;;;;;17.10;100.00;102429.41;5095996;28;20145;-37
2023/06/24 04:22:34;;;;;;;6.10;5.57;;;;;;;17.04;100.00;102424.88;5095821;28;19912;-37
2023/06/24 04:25:00;;;;;;;8.07;6.65;;;;;;;17.03;100.00;102422.38;5095675;28;20537;-37
2023/06/24 04:27:25;;;;;;;7.05;5.85;;;;;;;17.11;100.00;102414.66;5096175;28;20068;-37
2023/06/24 04:29:51;;;;;;;7.00;6.28;;;;;;;17.07;100.00;102410.72;5095369;28;20111;-37
2023/06/24 04:32:16;;;;;;;;;;;;;;;17.36;100.00;102424.53;5096322;28;20055;-37
2023/06/24 04:34:41;;;;;;;6.23;5.63;;;;;;;17.30;100.00;102415.38;5095577;28;19916;-37
2023/06/24 04:37:06;;;;;;;;;;;;;;;17.50;100.00;102431.44;5096352;28;20741;-37
2023/06/24 04:39:32;;;;;;;7.10;6.40;;;;;;;17.44;100.00;102422.28;5094982;28;19916;-37
2023/06/24 04:41:57;;;;;;;;;;;;;;;17.64;100.00;102424.63;5096336;28;20261;-37
2023/06/24 04:44:22;;;;;;;6.67;6.07;;;;;;;17.56;100.00;102425.00;5095196;28;19935;-37
2023/06/24 04:46:47;;;;;;;;;;;;;;;17.78;100.00;102427.97;5095545;28;20290;-37
2023/06/24 04:49:13;;;;;;;8.40;5.63;;;;;;;17.83;100.00;102435.47;5094675;28;19908;-37
2023/06/24 04:51:40;;;;;;;;;;;;;;;17.97;100.00;102431.41;5095418;28;20270;-37
2023/06/24 04:54:07;;;;;;;9.70;6.60;;;;;;;17.96;100.00;102435.22;5095639;28;19914;-37
2023/06/24 04:56:34;;;;;;;8.73;7.00;;;;;;;18.09;100.00;102426.69;5077178;28;20591;-37
2023/06/24 04:58:59;;;;;;;7.82;6.57;;;;;;;18.21;100.00;102443.09;5094494;28;20052;-37
2023/06/24 05:01:25;;;;;;;6.82;6.13;;;;;;;18.18;100.00;102421.69;5095024;28;20387;-37
2023/06/24 05:03:50;;;;;;;7.13;6.47;;;;;;;18.24;100.00;102424.25;5094533;28;20034;-37
2023/06/24 05:06:16;;;;;;;7.07;6.13;;;;;;;18.45;100.00;102424.69;5094964;28;20047;-37
2023/06/24 05:08:41;;;;;;;7.18;6.47;;;;;;;18.46;99.81;102437.28;5094514;28;20448;-37
2023/06/24 05:11:06;;;;;;;9.00;6.78;;;;;;;18.46;99.13;102427.16;5094298;28;20028;-37
2023/06/24 05:13:32;;;;;;;;;;;;;;;18.68;100.00;102432.78;5094671;28;20032;-37
2023/06/24 05:15:57;;;;;;;7.77;6.77;;;;;;;18.61;99.68;102425.78;5095389;28;19912;-37
2023/06/24 05:18:22;;;;;;;;;;;;;;;18.86;100.00;102426.25;5094794;28;20455;-37
2023/06/24 05:20:48;;;;;;;8.60;6.75;;;;;;;18.90;97.24;102429.34;5094387;28;20049;-37
2023/06/24 05:23:13;;;;;;;8.85;6.90;;;;;;;18.93;96.70;102417.84;5094704;28;20102;-37
2023/06/24 05:25:38;;;;;;;8.15;6.90;;;;;;;18.99;96.04;102425.94;5094690;28;20040;-37
2023/06/24 05:28:04;;;;;;;9.32;8.10;;;;;;;19.00;96.70;102432.25;5094427;28;20509;-37
2023/06/24 05:30:29;;;;;;;;;;;;;;;19.17;98.08;102422.09;5094654;28;20594;-37
2023/06/24 05:32:54;;;;;;;10.87;7.93;;;;;;;19.08;95.98;102414.53;5076327;28;19920;-37
2023/06/24 05:35:20;;;;;;;;;;;;;;;19.34;97.58;102421.25;5094590;28;20285;-36
2023/06/24 05:37:45;;;;;;;8.57;7.60;;;;;;;19.31;94.66;102436.28;5094097;28;19907;-36
2023/06/24 05:40:12;;;;;;;;;;;;;;;19.48;96.36;102428.06;5094199;28;20352;-36
2023/06/24 05:42:37;;;;;;;11.10;7.80;;;;;;;19.33;94.25;102427.84;5094177;28;19912;-37
2023/06/24 05:45:03;;;;;;;9.50;8.20;;;;;;;19.29;94.69;102417.34;5094069;28;20024;-37
2023/06/24 05:47:28;;;;;;;8.73;7.82;;;;;;;19.42;93.95;102431.78;5094098;28;20111;-43
2023/06/24 05:49:53;;;;;;;10.55;8.25;;;;;;;19.38;95.12;102433.41;5094168;28;20034;-37
2023/06/24 05:52:19;;;;;;;9.88;8.20;;;;;;;19.45;94.48;102436.78;5094481;28;20290;-37
2023/06/24 05:54:44;;;;;;;8.85;7.68;;;;;;;19.39;92.47;102430.38;5093694;28;20078;-37
2023/06/24 05:57:10;;;;;;;8.32;7.47;;;;;;;19.59;94.86;102440.81;5094387;28;20032;-37
2023/06/24 05:59:36;;;;;;;9.20;7.53;;;;;;;19.66;94.48;102430.50;5093855;28;20051;-37
2023/06/24 06:02:01;;;;;;;8.38;7.38;;;;;;;19.78;93.01;102441.38;5093840;28;20028;-37
2023/06/24 06:04:27;;;;;;;7.78;6.97;;;;;;;19.79;89.49;102443.03;5093554;28;20024;-37
2023/06/24 06:06:53;;;;;;;7.80;7.00;;;;;;;19.74;89.80;102430.09;5093756;28;20386;-37
2023/06/24 06:09:18;;;;;;;7.95;7.13;;;;;;;19.94;90.47;102429.50;5093154;28;20099;-37
2023/06/24 06:11:44;;;;;;;9.43;6.93;;;;;;;20.06;89.14;102434.91;5093139;28;20395;-37
2023/06/24 06:14:09;;;;;;;8.02;7.28;;;;;;;20.08;87.08;102446.44;5093350;28;20062;-37
2023/06/24 06:16:34;;;;;;;9.07;7.72;;;;;;;20.09;87.10;102439.03;5093418;28;20039;-37
2023/06/24 06:19:00;;;;;;;7.60;6.70;;;;;;;20.12;86.02;102442.09;5093238;28;20085;-37
2023/06/24 06:21:25;;;;;;;7.43;6.72;;;;;;;20.14;85.51;102436.34;5093222;28;20031;-37
2023/06/24 06:23:50;;;;;;;7.30;6.55;;;;;;;20.18;84.57;102441.06;5093136;28;20070;-37
2023/06/24 06:26:16;;;;;;;8.73;6.93;;;;;;;20.26;83.91;102442.53;5093190;28;20391;-37
2023/06/24 06:28:41;;;;;;;8.98;7.45;;;;;;;20.28;83.62;102443.91;5093268;28;20031;-37
2023/06/24 06:31:07;;;;;;;7.82;7.03;;;;;;;20.35;82.94;102440.13;5093236;28;20035;-37
2023/06/24 06:33:32;;;;;;;9.85;7.85;;;;;;;20.29;83.22;102434.59;5093600;28;20032;-37
2023/06/24 06:35:58;;;;;;;8.80;6.97;;;;;;;20.29;82.48;102442.84;5093240;28;20463;-37
2023/06/24 06:38:24;;;;;;;7.72;6.60;;;;;;;20.35;83.18;102452.00;5092722;28;20028;-37
2023/06/24 06:40:49;;;;;;;7.63;6.80;;;;;;;20.42;82.63;102452.59;5093368;28;20028;-37
2023/06/24 06:43:15;;;;;;;6.97;5.70;;;;;;;20.46;82.82;102452.91;5092938;28;20032;-37
2023/06/24 06:45:40;;;;;;;7.90;6.47;;;;;;;20.45;81.93;102452.09;5092591;28;20112;-37
2023/06/24 06:48:09;;;;;;;6.97;6.28;;;;;;;20.43;81.00;102454.25;5092826;28;20109;-37
2023/06/24 06:50:34;;;;;;;7.63;6.28;;;;;;;20.48;80.99;102456.25;5092842;28;20035;-36
2023/06/24 06:53:00;;;;;;;7.28;5.60;;;;;;;20.55;80.50;102460.47;5092779;28;20028;-36
2023/06/24 06:55:26;;;;;;;6.82;5.85;;;;;;;20.53;79.85;102454.38;5092875;28;20024;-36
2023/06/24 06:57:53;;;;;;;7.90;6.00;;;;;;;20.61;78.95;102460.53;5074866;28;20036;-37
2023/06/24 07:00:18;;;;;;;8.07;6.20;;;;;;;20.65;78.58;102465.25;5092571;28;20059;-37
2023/06/24 07:02:43;;;;;;;5.75;5.15;;;;;;;20.69;78.03;102474.63;5093452;28;20028;-37
2023/06/24 07:05:09;;;;;;;6.72;5.60;;;;;;;20.70;78.30;102470.78;5092471;28;20028;-37
2023/06/24 07:07:37;;;;;;;5.82;5.10;;;;;;;20.72;76.48;102471.34;5092353;28;20468;-36
2023/06/24 07:10:02;;;;;;;7.28;5.28;;;;;;;20.76;78.46;102463.41;5092399;28;20040;-37
2023/06/24 07:12:28;;;;;;;6.05;5.15;;;;;;;20.86;76.65;102469.00;5093324;28;20028;-37
2023/06/24 07:14:53;;;;;;;5.78;5.18;;;;;;;20.93;77.05;102469.63;5092768;28;20119;-37
2023/06/24 07:17:18;;;;;;;5.82;5.05;;;;;;;20.92;76.16;102467.13;5092612;28;20380;-37
2023/06/24 07:19:44;;;;;;;5.63;5.13;;;;;;;21.03;76.45;102475.22;5092469;28;20353;-37
2023/06/24 07:22:09;;;;;;;7.68;5.88;;;;;;;21.07;77.13;102475.50;5096037;28;20123;-37
2023/06/24 07:24:34;;;;;;;5.63;4.97;;;;;;;21.02;74.82;102464.47;5097135;28;20028;-37
2023/06/24 07:27:00;;;;;;;7.65;5.10;;;;;;;21.07;75.72;102476.34;5096705;28;20103;-37
2023/06/24 07:29:25;;;;;;;6.13;5.53;;;;;;;21.09;74.67;102474.19;5096845;28;20102;-37
2023/06/24 07:31:50;;;;;;;8.02;5.40;;;;;;;21.09;74.20;102470.59;5096850;28;20028;-37
2023/06/24 07:34:16;;;;;;;6.53;5.15;;;;;;;21.16;74.30;102484.13;5096548;28;20020;-37
2023/06/24 07:36:41;;;;;;;7.63;5.70;;;;;;;21.17;76.22;102483.03;5096689;28;20028;-37
2023/06/24 07:39:06;;;;;;;9.88;5.80;;;;;;;21.22;75.09;102477.56;5096740;28;20059;-37
2023/06/24 07:41:32;;;;;;;5.55;5.05;;;;;;;21.39;74.98;102481.03;5096644;28;20043;-37
2023/06/24 07:43:57;;;;;;;6.47;5.32;;;;;;;21.35;77.00;102471.66;5096392;28;20098;-37
2023/06/24 07:46:23;;;;;;;6.55;5.30;;;;;;;21.36;75.57;102462.28;5096229;28;20051;-37
2023/06/24 07:48:48;;;;;;;5.68;5.03;;;;;;;21.50;75.71;102479.19;5095891;28;20348;-37
2023/06/24 07:51:14;;;;;;;5.55;4.80;;;;;;;21.58;77.37;102473.19;5096695;28;20082;-37
2023/06/24 07:53:39;;;;;;;6.10;5.40;;;;;;;21.71;74.11;102471.88;5096466;28;20365;-37
2023/06/24 07:56:05;;;;;;;5.57;4.90;;;;;;;21.71;74.14;102469.94;5095960;28;20474;-37
2023/06/24 07:58:30;;;;;;;5.03;4.13;;;;;;;21.78;70.01;102462.28;5096047;28;20031;-37
2023/06/24 08:00:55;;;;;;;4.60;4.20;;;;;;;21.95;70.36;102472.28;5096150;28;20498;-37
2023/06/24 08:03:21;;;;;;;4.70;3.63;;;;;;;21.99;68.61;102470.63;5095653;28;20387;-37
2023/06/24 08:05:47;;;;;;;5.63;3.65;;;;;;;21.99;69.04;102468.72;5096043;28;20375;-37
2023/06/24 08:08:12;;;;;;;5.38;3.80;;;;;;;22.11;67.23;102471.28;5095644;28;20039;-37
2023/06/24 08:10:37;;;;;;;3.85;3.33;;;;;;;22.14;66.45;102467.97;5096164;28;20039;-37
2023/06/24 08:13:03;;;;;;;5.30;4.13;;;;;;;22.23;65.48;102460.03;5096090;28;20105;-37
2023/06/24 08:15:28;;;;;;;4.25;3.72;;;;;;;22.39;66.86;102460.88;5096017;28;20054;-37
2023/06/24 08:17:54;;;;;;;5.78;4.22;;;;;;;22.48;66.84;102464.78;5095714;28;20035;-37
2023/06/24 08:20:21;;;;;;;4.63;4.00;;;;;;;22.50;66.53;102465.34;5095621;28;20036;-37
2023/06/24 08:22:46;;;;;;;4.82;4.32;;;;;;;22.58;66.53;102462.88;5095619;28;20403;-37
2023/06/24 08:25:12;;;;;;;5.68;3.80;;;;;;;22.71;65.66;102464.28;5095826;28;20043;-37
2023/06/24 08:27:37;;;;;;;4.32;3.85;;;;;;;22.76;63.61;102449.66;5096200;28;20349;-37
2023/06/24 08:30:05;;;;;;;4.35;3.45;;;;;;;22.82;64.95;102441.13;5095708;28;20032;-37
2023/06/24 08:32:30;;;;;;;3.88;3.40;;;;;;;22.93;63.94;102449.41;5095045;28;20074;-37
2023/06/24 08:34:55;;;;;;;4.80;2.83;;;;;;;23.09;64.63;102451.09;5095412;28;20051;-37
2023/06/24 08:37:21;;;;;;;4.13;2.50;;;;;;;23.03;59.79;102432.88;5095605;28;20035;-37
2023/06/24 08:39:47;;;;;;;5.85;2.58;;;;;;;23.12;61.51;102434.78;5094910;28;20031;-37
2023/06/24 08:42:12;;;;;;;3.10;2.33;;;;;;;23.20;57.67;102447.22;5095506;28;20032;-37
2023/06/24 08:44:37;;;;;;;5.18;2.83;;;;;;;23.32;58.49;102447.75;5095317;28;20024;-37
2023/06/24 08:47:03;;;;;;;4.13;2.67;;;;;;;23.43;59.20;102442.22;5095510;28;20039;-38
2023/06/24 08:49:30;;;;;;;2.65;2.30;;;;;;;23.46;59.96;102456.28;5095477;28;20107;-38
2023/06/24 08:52:15;;;;;;;3.05;2.40;;;;;;;23.53;60.43;102439.44;5095624;28;20028;-37
2023/06/24 08:54:44;;;;;;;2.20;1.90;;;;;;;23.71;59.98;102447.13;5095178;28;20165;-37
2023/06/24 08:57:14;;;;;;;3.10;2.30;;;;;;;23.83;59.15;102442.13;5095646;28;20032;-38
2023/06/24 08:59:40;;;;;;;3.22;2.08;;;;;;;24.07;57.02;102449.78;5094416;28;20082;-37
2023/06/24 09:02:06;;;;;;;3.90;1.98;;;;;;;24.03;56.44;102445.91;5095319;28;20107;-37
2023/06/24 09:04:32;;;;;;;2.10;1.70;;;;;;;24.23;56.62;102437.53;5094481;28;20113;-37
2023/06/24 09:06:57;;;;;;;2.33;1.60;;;;;;;24.41;56.49;102438.84;5094986;28;20036;-37
2023/06/24 09:09:23;;;;;;;3.47;1.80;;;;;;;24.44;55.26;102437.44;5094638;28;20508;-37
2023/06/24 09:11:53;;;;;;;3.10;1.48;;;;;;;24.52;52.77;102436.81;5094902;28;20036;-37
2023/06/24 09:14:18;;;;;;;2.03;1.50;;;;;;;24.65;54.44;102436.19;5094513;28;20035;-37
2023/06/24 09:17:06;;;;;;;4.80;1.95;;;;;;;24.58;53.58;102424.63;5094658;28;20091;-37
2023/06/24 09:19:36;;;;;;;3.20;1.95;;;;;;;24.54;53.31;102418.00;5094655;28;20032;-38
2023/06/24 09:22:08;;;;;;;3.25;1.70;;;;;;;24.86;53.00;102429.38;5094211;28;20097;-37
2023/06/24 09:24:36;;;;;;;4.32;2.60;;;;;;;25.10;51.71;102426.69;5094777;28;20059;-38
2023/06/24 09:27:03;;;;;;;3.67;1.88;;;;;;;25.09;52.60;102430.59;5094980;28;20027;-37
2023/06/24 09:29:35;;;;;;;3.22;1.77;;;;;;;25.27;52.95;102406.88;5094191;28;20430;-38
2023/06/24 09:32:04;;;;;;;3.10;1.73;;;;;;;25.49;52.35;102408.31;5094162;28;20452;-38
2023/06/24 09:34:30;;;;;;;2.35;1.85;;;;;;;25.52;49.59;102408.53;5094363;28;20032;-37
2023/06/24 09:36:57;;;;;;;2.50;1.60;;;;;;;25.74;50.44;102405.25;5094633;28;20035;-38
2023/06/24 09:39:28;;;;;;;2.75;1.60;;;;;;;25.80;49.71;102400.50;5076002;28;20028;-38
2023/06/24 09:41:54;;;;;;;2.50;1.90;;;;;;;25.80;50.98;102393.00;5094552;28;20113;-37
2023/06/24 09:44:20;;;;;;;2.47;1.77;;;;;;;25.91;50.47;102394.53;5093176;28;20024;-38
2023/06/24 09:46:46;;;;;;;2.67;1.85;;;;;;;25.93;51.29;102400.59;5094331;28;20460;-38
2023/06/24 09:49:11;;;;;;;2.90;1.80;;;;;;;25.95;51.20;102394.75;5093957;28;20024;-37
2023/06/24 09:51:38;;;;;;;2.75;2.08;;;;;;;26.06;50.23;102399.03;5093789;28;20044;-37
2023/06/24 09:54:06;;;;;;;2.72;1.55;;;;;;;25.97;49.41;102400.00;5093502;28;20393;-37
2023/06/24 09:56:36;;;;;;;2.15;1.70;;;;;;;25.96;48.34;102398.34;5093853;28;20040;-37
2023/06/24 09:59:04;;;;;;;3.45;1.80;;;;;;;26.08;51.04;102393.19;5094118;28;20051;-37
2023/06/24 10:01:32;;;;;;;1.98;1.58;;;;;;;26.02;44.97;102380.53;5093876;28;20108;-37
2023/06/24 10:03:58;;;;;;;2.28;1.88;;;;;;;26.04;47.74;102383.81;5093324;28;20031;-37
2023/06/24 10:06:25;;;;;;;2.53;2.08;;;;;;;26.17;49.59;102392.22;5094304;28;20057;-37
2023/06/24 10:08:52;;;;;;;2.55;2.10;;;;;;;26.17;49.48;102399.72;5093531;28;20396;-38
2023/06/24 10:11:17;;;;;;;3.33;1.98;;;;;;;26.20;50.59;102380.50;5093935;28;20060;-38
2023/06/24 10:13:43;;;;;;;3.17;1.75;;;;;;;26.31;48.63;102395.06;5093426;28;20460;-38
2023/06/24 10:16:08;;;;;;;3.58;1.70;;;;;;;26.41;49.27;102394.91;5093726;28;20028;-38
2023/06/24 10:18:35;;;;;;;3.25;1.70;;;;;;;26.39;49.43;102383.28;5094059;28;20036;-38
2023/06/24 10:21:02;;;;;;;3.03;1.85;;;;;;;26.43;50.09;102387.13;5093577;28;20032;-38
2023/06/24 10:23:41;;;;;;;2.72;2.03;;;;;;;26.59;48.86;102397.97;5093199;28;20530;-38
2023/06/24 10:26:29;;;;;;;4.10;2.17;;;;;;;26.65;51.45;102391.25;5093915;28;20055;-38
2023/06/24 10:29:07;;;;;;;2.95;2.00;;;;;;;26.63;51.42;102385.16;5082424;28;20040;-38
2023/06/24 10:31:42;;;;;;;3.08;1.77;;;;;;;26.76;51.70;102389.94;5093437;28;20028;-38
2023/06/24 10:34:23;;;;;;;3.13;2.20;;;;;;;26.85;52.47;102393.69;5092892;28;20024;-37
2023/06/24 10:37:07;;;;;;;2.50;2.13;;;;;;;26.88;51.39;102381.94;5093352;28;20036;-37
2023/06/24 10:39:39;;;;;;;2.72;2.00;;;;;;;26.82;48.50;102382.34;5093253;28;20448;-37
2023/06/24 10:42:29;;;;;;;3.30;2.28;;;;;;;26.90;49.74;102379.72;5093470;28;20036;-37
2023/06/24 10:44:56;;;;;;;3.50;1.67;;;;;;;27.05;48.93;102377.78;5093267;28;20032;-37
2023/06/24 10:47:23;;;;;;;2.47;1.90;;;;;;;27.11;49.85;102376.59;5092926;28;20086;-37
2023/06/24 10:49:48;;;;;;;5.20;1.80;;;;;;;27.18;47.90;102377.84;5092900;28;20038;-37
2023/06/24 10:52:14;;;;;;;3.80;2.10;;;;;;;27.26;46.40;102381.03;5093186;28;20379;-37
2023/06/24 10:54:41;;;;;;;2.97;1.98;;;;;;;27.31;48.28;102367.84;5092490;28;20031;-37
2023/06/24 10:57:11;;;;;;;2.95;2.05;;;;;;;27.33;46.27;102367.53;5093324;28;20028;-37
2023/06/24 10:59:46;;;;;;;3.67;2.22;;;;;;;27.19;47.37;102373.94;5093067;28;20044;-37
2023/06/24 11:02:17;;;;;;;3.03;2.30;;;;;;;27.42;47.03;102379.59;5093204;28;20024;-37
2023/06/24 11:04:47;;;;;;;4.07;2.30;;;;;;;27.37;47.11;102351.91;5092701;28;20487;-37
2023/06/24 11:07:12;;;;;;;3.00;2.42;;;;;;;27.76;48.87;102359.72;5092620;28;20032;-37
2023/06/24 11:09:40;;;;;;;2.55;2.10;;;;;;;27.83;46.87;102368.47;5093616;28;20050;-37
2023/06/24 11:12:09;;;;;;;3.13;2.55;;;;;;;27.91;46.27;102351.03;5075262;28;20028;-37
2023/06/24 11:14:37;;;;;;;2.70;2.22;;;;;;;28.05;45.32;102364.91;5092844;28;20085;-37
2023/06/24 11:17:03;;;;;;;4.53;2.38;;;;;;;28.12;44.63;102362.53;5092903;28;20393;-38
2023/06/24 11:19:30;;;;;;;3.42;2.70;;;;;;;27.99;43.40;102357.84;5092385;28;20036;-38
2023/06/24 11:21:59;;;;;;;3.97;2.72;;;;;;;27.79;46.01;102341.63;5092693;28;20107;-38
2023/06/24 11:24:25;;;;;;;2.72;2.45;;;;;;;27.87;44.48;102349.22;5092598;28;20380;-38
2023/06/24 11:26:51;;;;;;;3.90;2.33;;;;;;;27.80;44.69;102343.25;5092894;28;20028;-38